sensor_id;sensor_type;location;lat;lon;timestamp;P1;durP1;ratioP1;P2;durP2;ratioP2
76415;SDS011;65248;55.686;37.678;2022-12-10T00:01:36;10.18;;;4.15;;
76415;SDS011;65248;55.686;37.678;2022-12-10T00:04:02;5.97;;;3.08;;
76415;SDS011;65248;55.686;37.678;2022-12-10T00:06:29;9.40;;;2.72;;
76415;SDS011;65248;55.686;37.678;2022-12-10T00:08:57;10.25;;;3.78;;
76415;SDS011;65248;55.686;37.678;2022-12-10T00:11:24;7.45;;;4.22;;
76415;SDS011;65248;55.686;37.678;2022-12-10T00:13:50;11.75;;;3.65;;
76415;SDS011;65248;55.686;37.678;2022-12-10T00:16:17;7.78;;;4.00;;
76415;SDS011;65248;55.686;37.678;2022-12-10T00:18:44;5.95;;;3.60;;
76415;SDS011;65248;55.686;37.678;2022-12-10T00:21:12;15.75;;;5.38;;
76415;SDS011;65248;55.686;37.678;2022-12-10T00:23:41;11.88;;;5.43;;
76415;SDS011;65248;55.686;37.678;2022-12-10T00:26:08;18.08;;;5.95;;
76415;SDS011;65248;55.686;37.678;2022-12-10T00:28:34;10.57;;;4.63;;
76415;SDS011;65248;55.686;37.678;2022-12-10T00:31:04;12.68;;;6.38;;
76415;SDS011;65248;55.686;37.678;2022-12-10T00:33:40;13.85;;;5.95;;
76415;SDS011;65248;55.686;37.678;2022-12-10T00:36:25;15.00;;;5.88;;
76415;SDS011;65248;55.686;37.678;2022-12-10T00:38:53;11.07;;;5.60;;
76415;SDS011;65248;55.686;37.678;2022-12-10T00:41:19;18.98;;;6.30;;
76415;SDS011;65248;55.686;37.678;2022-12-10T00:43:44;9.68;;;6.18;;
76415;SDS011;65248;55.686;37.678;2022-12-10T00:46:10;9.45;;;5.30;;
76415;SDS011;65248;55.686;37.678;2022-12-10T00:48:37;11.52;;;5.65;;
76415;SDS011;65248;55.686;37.678;2022-12-10T00:51:10;11.23;;;5.32;;
76415;SDS011;65248;55.686;37.678;2022-12-10T00:53:39;16.27;;;7.75;;
76415;SDS011;65248;55.686;37.678;2022-12-10T00:56:07;18.65;;;7.30;;
76415;SDS011;65248;55.686;37.678;2022-12-10T00:58:34;22.90;;;7.20;;
76415;SDS011;65248;55.686;37.678;2022-12-10T01:01:35;16.15;;;6.75;;
76415;SDS011;65248;55.686;37.678;2022-12-10T01:04:03;21.88;;;6.53;;
76415;SDS011;65248;55.686;37.678;2022-12-10T01:06:39;19.33;;;7.82;;
76415;SDS011;65248;55.686;37.678;2022-12-10T01:09:10;13.93;;;7.63;;
76415;SDS011;65248;55.686;37.678;2022-12-10T01:11:39;21.52;;;8.10;;
76415;SDS011;65248;55.686;37.678;2022-12-10T01:14:07;14.70;;;5.55;;
76415;SDS011;65248;55.686;37.678;2022-12-10T01:16:34;26.48;;;7.97;;
76415;SDS011;65248;55.686;37.678;2022-12-10T01:18:59;15.15;;;7.50;;
76415;SDS011;65248;55.686;37.678;2022-12-10T01:21:26;17.73;;;8.13;;
76415;SDS011;65248;55.686;37.678;2022-12-10T01:23:53;22.30;;;8.55;;
76415;SDS011;65248;55.686;37.678;2022-12-10T01:26:20;23.92;;;9.82;;
76415;SDS011;65248;55.686;37.678;2022-12-10T01:28:48;23.13;;;7.43;;
76415;SDS011;65248;55.686;37.678;2022-12-10T01:31:15;15.75;;;7.60;;
76415;SDS011;65248;55.686;37.678;2022-12-10T01:33:43;18.63;;;8.80;;
76415;SDS011;65248;55.686;37.678;2022-12-10T01:36:13;22.90;;;8.73;;
76415;SDS011;65248;55.686;37.678;2022-12-10T01:38:44;16.25;;;7.07;;
76415;SDS011;65248;55.686;37.678;2022-12-10T01:41:24;33.22;;;9.60;;
76415;SDS011;65248;55.686;37.678;2022-12-10T01:46:23;16.27;;;6.70;;
76415;SDS011;65248;55.686;37.678;2022-12-10T01:48:51;20.13;;;8.50;;
76415;SDS011;65248;55.686;37.678;2022-12-10T01:51:17;15.93;;;7.38;;
76415;SDS011;65248;55.686;37.678;2022-12-10T01:53:43;20.50;;;8.02;;
76415;SDS011;65248;55.686;37.678;2022-12-10T01:56:11;18.48;;;7.70;;
76415;SDS011;65248;55.686;37.678;2022-12-10T01:58:36;32.88;;;8.63;;
76415;SDS011;65248;55.686;37.678;2022-12-10T02:04:02;18.13;;;8.00;;
76415;SDS011;65248;55.686;37.678;2022-12-10T02:06:48;25.55;;;9.57;;
76415;SDS011;65248;55.686;37.678;2022-12-10T02:14:53;17.30;;;7.60;;
76415;SDS011;65248;55.686;37.678;2022-12-10T02:17:27;17.60;;;7.53;;
76415;SDS011;65248;55.686;37.678;2022-12-10T02:22:34;22.23;;;8.95;;
76415;SDS011;65248;55.686;37.678;2022-12-10T02:25:04;26.73;;;8.15;;
76415;SDS011;65248;55.686;37.678;2022-12-10T02:27:40;19.50;;;7.57;;
76415;SDS011;65248;55.686;37.678;2022-12-10T02:30:07;16.25;;;6.93;;
76415;SDS011;65248;55.686;37.678;2022-12-10T02:32:35;13.20;;;8.45;;
76415;SDS011;65248;55.686;37.678;2022-12-10T02:35:05;23.77;;;7.55;;
76415;SDS011;65248;55.686;37.678;2022-12-10T02:37:38;28.15;;;7.20;;
76415;SDS011;65248;55.686;37.678;2022-12-10T02:40:11;20.27;;;8.40;;
76415;SDS011;65248;55.686;37.678;2022-12-10T02:42:42;16.13;;;7.38;;
76415;SDS011;65248;55.686;37.678;2022-12-10T02:45:09;16.77;;;8.75;;
76415;SDS011;65248;55.686;37.678;2022-12-10T02:47:36;25.88;;;7.55;;
76415;SDS011;65248;55.686;37.678;2022-12-10T02:50:03;15.63;;;8.77;;
76415;SDS011;65248;55.686;37.678;2022-12-10T02:52:31;15.45;;;6.25;;
76415;SDS011;65248;55.686;37.678;2022-12-10T02:54:56;13.68;;;7.30;;
76415;SDS011;65248;55.686;37.678;2022-12-10T03:05:20;20.25;;;7.70;;
76415;SDS011;65248;55.686;37.678;2022-12-10T03:10:27;15.23;;;5.90;;
76415;SDS011;65248;55.686;37.678;2022-12-10T03:12:58;21.27;;;7.90;;
76415;SDS011;65248;55.686;37.678;2022-12-10T03:15:27;18.50;;;8.15;;
76415;SDS011;65248;55.686;37.678;2022-12-10T03:17:55;16.73;;;6.80;;
76415;SDS011;65248;55.686;37.678;2022-12-10T03:20:22;26.08;;;6.05;;
76415;SDS011;65248;55.686;37.678;2022-12-10T03:22:49;17.33;;;6.32;;
76415;SDS011;65248;55.686;37.678;2022-12-10T03:25:21;14.55;;;6.80;;
76415;SDS011;65248;55.686;37.678;2022-12-10T03:27:50;23.38;;;5.25;;
76415;SDS011;65248;55.686;37.678;2022-12-10T03:30:18;22.52;;;7.65;;
76415;SDS011;65248;55.686;37.678;2022-12-10T03:32:44;15.05;;;6.07;;
76415;SDS011;65248;55.686;37.678;2022-12-10T03:35:11;17.08;;;6.65;;
76415;SDS011;65248;55.686;37.678;2022-12-10T03:37:39;17.30;;;7.10;;
76415;SDS011;65248;55.686;37.678;2022-12-10T03:40:06;15.70;;;6.90;;
76415;SDS011;65248;55.686;37.678;2022-12-10T03:42:35;15.27;;;7.05;;
76415;SDS011;65248;55.686;37.678;2022-12-10T03:45:01;13.18;;;7.38;;
76415;SDS011;65248;55.686;37.678;2022-12-10T03:47:27;22.17;;;8.15;;
76415;SDS011;65248;55.686;37.678;2022-12-10T03:49:52;17.38;;;8.02;;
76415;SDS011;65248;55.686;37.678;2022-12-10T03:52:17;14.15;;;6.50;;
76415;SDS011;65248;55.686;37.678;2022-12-10T03:54:43;16.50;;;6.78;;
76415;SDS011;65248;55.686;37.678;2022-12-10T03:57:08;16.52;;;8.35;;
76415;SDS011;65248;55.686;37.678;2022-12-10T03:59:34;20.33;;;7.25;;
76415;SDS011;65248;55.686;37.678;2022-12-10T04:01:59;17.90;;;8.55;;
76415;SDS011;65248;55.686;37.678;2022-12-10T04:04:25;14.18;;;6.63;;
76415;SDS011;65248;55.686;37.678;2022-12-10T04:06:50;14.77;;;8.00;;
76415;SDS011;65248;55.686;37.678;2022-12-10T04:09:16;19.25;;;6.80;;
76415;SDS011;65248;55.686;37.678;2022-12-10T04:11:42;22.80;;;7.18;;
76415;SDS011;65248;55.686;37.678;2022-12-10T04:14:09;15.00;;;7.40;;
76415;SDS011;65248;55.686;37.678;2022-12-10T04:17:13;18.00;;;7.03;;
76415;SDS011;65248;55.686;37.678;2022-12-10T04:19:39;17.02;;;8.27;;
76415;SDS011;65248;55.686;37.678;2022-12-10T04:22:04;26.98;;;8.65;;
76415;SDS011;65248;55.686;37.678;2022-12-10T04:24:49;15.43;;;7.40;;
76415;SDS011;65248;55.686;37.678;2022-12-10T04:27:33;18.27;;;7.30;;
76415;SDS011;65248;55.686;37.678;2022-12-10T04:30:03;19.05;;;7.72;;
76415;SDS011;65248;55.686;37.678;2022-12-10T04:32:30;19.70;;;8.27;;
76415;SDS011;65248;55.686;37.678;2022-12-10T04:34:56;19.02;;;7.18;;
76415;SDS011;65248;55.686;37.678;2022-12-10T04:37:21;16.02;;;6.55;;
76415;SDS011;65248;55.686;37.678;2022-12-10T04:39:49;25.02;;;8.80;;
76415;SDS011;65248;55.686;37.678;2022-12-10T04:42:15;15.50;;;6.90;;
76415;SDS011;65248;55.686;37.678;2022-12-10T04:44:40;17.15;;;7.63;;
76415;SDS011;65248;55.686;37.678;2022-12-10T04:47:06;23.83;;;7.72;;
76415;SDS011;65248;55.686;37.678;2022-12-10T04:49:33;13.80;;;7.45;;
76415;SDS011;65248;55.686;37.678;2022-12-10T04:51:59;19.20;;;7.95;;
76415;SDS011;65248;55.686;37.678;2022-12-10T04:54:25;25.13;;;8.30;;
76415;SDS011;65248;55.686;37.678;2022-12-10T04:56:50;24.50;;;8.50;;
76415;SDS011;65248;55.686;37.678;2022-12-10T04:59:16;17.02;;;6.30;;
76415;SDS011;65248;55.686;37.678;2022-12-10T05:01:42;19.52;;;8.13;;
76415;SDS011;65248;55.686;37.678;2022-12-10T05:04:09;16.33;;;8.10;;
76415;SDS011;65248;55.686;37.678;2022-12-10T05:06:37;20.40;;;8.40;;
76415;SDS011;65248;55.686;37.678;2022-12-10T05:09:03;13.73;;;8.43;;
76415;SDS011;65248;55.686;37.678;2022-12-10T05:11:30;21.17;;;9.88;;
76415;SDS011;65248;55.686;37.678;2022-12-10T05:13:57;14.43;;;7.68;;
76415;SDS011;65248;55.686;37.678;2022-12-10T05:16:23;20.13;;;8.45;;
76415;SDS011;65248;55.686;37.678;2022-12-10T05:18:50;19.40;;;9.55;;
76415;SDS011;65248;55.686;37.678;2022-12-10T05:21:18;20.10;;;8.63;;
76415;SDS011;65248;55.686;37.678;2022-12-10T05:23:45;24.35;;;8.18;;
76415;SDS011;65248;55.686;37.678;2022-12-10T05:26:14;18.35;;;8.90;;
76415;SDS011;65248;55.686;37.678;2022-12-10T05:28:43;20.20;;;8.02;;
76415;SDS011;65248;55.686;37.678;2022-12-10T05:31:17;24.58;;;8.30;;
76415;SDS011;65248;55.686;37.678;2022-12-10T05:33:48;18.02;;;8.07;;
76415;SDS011;65248;55.686;37.678;2022-12-10T05:36:15;22.95;;;8.43;;
76415;SDS011;65248;55.686;37.678;2022-12-10T05:38:43;18.80;;;8.07;;
76415;SDS011;65248;55.686;37.678;2022-12-10T05:41:19;24.42;;;8.40;;
76415;SDS011;65248;55.686;37.678;2022-12-10T05:43:46;19.13;;;7.13;;
76415;SDS011;65248;55.686;37.678;2022-12-10T05:46:20;18.90;;;7.57;;
76415;SDS011;65248;55.686;37.678;2022-12-10T05:48:47;17.17;;;8.27;;
76415;SDS011;65248;55.686;37.678;2022-12-10T05:51:15;19.48;;;8.10;;
76415;SDS011;65248;55.686;37.678;2022-12-10T05:53:42;18.75;;;8.88;;
76415;SDS011;65248;55.686;37.678;2022-12-10T05:56:10;20.58;;;8.82;;
76415;SDS011;65248;55.686;37.678;2022-12-10T05:58:40;19.58;;;8.35;;
76415;SDS011;65248;55.686;37.678;2022-12-10T06:01:09;16.30;;;7.55;;
76415;SDS011;65248;55.686;37.678;2022-12-10T06:03:38;21.25;;;8.90;;
76415;SDS011;65248;55.686;37.678;2022-12-10T06:06:04;23.80;;;9.32;;
76415;SDS011;65248;55.686;37.678;2022-12-10T06:08:30;15.18;;;7.35;;
76415;SDS011;65248;55.686;37.678;2022-12-10T06:11:00;20.25;;;8.73;;
76415;SDS011;65248;55.686;37.678;2022-12-10T06:13:29;22.77;;;8.65;;
76415;SDS011;65248;55.686;37.678;2022-12-10T06:15:55;24.20;;;10.90;;
76415;SDS011;65248;55.686;37.678;2022-12-10T06:18:20;25.42;;;10.35;;
76415;SDS011;65248;55.686;37.678;2022-12-10T06:20:46;21.08;;;8.05;;
76415;SDS011;65248;55.686;37.678;2022-12-10T06:23:12;30.55;;;9.82;;
76415;SDS011;65248;55.686;37.678;2022-12-10T06:25:37;33.85;;;9.93;;
76415;SDS011;65248;55.686;37.678;2022-12-10T06:28:03;34.65;;;10.50;;
76415;SDS011;65248;55.686;37.678;2022-12-10T06:30:29;24.50;;;11.10;;
76415;SDS011;65248;55.686;37.678;2022-12-10T06:32:55;31.98;;;9.18;;
76415;SDS011;65248;55.686;37.678;2022-12-10T06:35:20;22.85;;;10.00;;
76415;SDS011;65248;55.686;37.678;2022-12-10T06:37:46;22.90;;;9.85;;
76415;SDS011;65248;55.686;37.678;2022-12-10T06:40:11;30.48;;;11.48;;
76415;SDS011;65248;55.686;37.678;2022-12-10T06:42:37;20.13;;;7.97;;
76415;SDS011;65248;55.686;37.678;2022-12-10T06:45:02;21.80;;;10.52;;
76415;SDS011;65248;55.686;37.678;2022-12-10T06:47:28;18.05;;;7.43;;
76415;SDS011;65248;55.686;37.678;2022-12-10T06:49:53;28.58;;;8.98;;
76415;SDS011;65248;55.686;37.678;2022-12-10T06:52:19;34.67;;;9.52;;
76415;SDS011;65248;55.686;37.678;2022-12-10T06:54:44;21.15;;;9.77;;
76415;SDS011;65248;55.686;37.678;2022-12-10T06:57:10;30.15;;;10.23;;
76415;SDS011;65248;55.686;37.678;2022-12-10T06:59:35;27.27;;;10.32;;
76415;SDS011;65248;55.686;37.678;2022-12-10T07:02:01;22.73;;;9.10;;
76415;SDS011;65248;55.686;37.678;2022-12-10T07:04:26;24.52;;;9.50;;
76415;SDS011;65248;55.686;37.678;2022-12-10T07:06:52;27.48;;;10.65;;
76415;SDS011;65248;55.686;37.678;2022-12-10T07:09:17;34.05;;;10.45;;
76415;SDS011;65248;55.686;37.678;2022-12-10T07:11:43;29.42;;;11.73;;
76415;SDS011;65248;55.686;37.678;2022-12-10T07:14:15;27.73;;;10.70;;
76415;SDS011;65248;55.686;37.678;2022-12-10T07:16:41;23.52;;;11.65;;
76415;SDS011;65248;55.686;37.678;2022-12-10T07:19:08;30.75;;;10.73;;
76415;SDS011;65248;55.686;37.678;2022-12-10T07:21:35;32.30;;;11.82;;
76415;SDS011;65248;55.686;37.678;2022-12-10T07:24:05;33.80;;;10.05;;
76415;SDS011;65248;55.686;37.678;2022-12-10T07:26:36;22.30;;;10.90;;
76415;SDS011;65248;55.686;37.678;2022-12-10T07:29:03;32.63;;;11.88;;
76415;SDS011;65248;55.686;37.678;2022-12-10T07:31:30;29.75;;;11.00;;
76415;SDS011;65248;55.686;37.678;2022-12-10T07:33:56;37.40;;;11.15;;
76415;SDS011;65248;55.686;37.678;2022-12-10T07:36:23;26.88;;;11.50;;
76415;SDS011;65248;55.686;37.678;2022-12-10T07:38:50;28.38;;;11.70;;
76415;SDS011;65248;55.686;37.678;2022-12-10T07:41:16;30.40;;;10.50;;
76415;SDS011;65248;55.686;37.678;2022-12-10T07:43:42;22.85;;;10.88;;
76415;SDS011;65248;55.686;37.678;2022-12-10T07:46:10;23.75;;;10.05;;
76415;SDS011;65248;55.686;37.678;2022-12-10T07:48:37;18.85;;;10.10;;
76415;SDS011;65248;55.686;37.678;2022-12-10T07:51:03;38.92;;;10.95;;
76415;SDS011;65248;55.686;37.678;2022-12-10T07:53:30;26.10;;;10.70;;
76415;SDS011;65248;55.686;37.678;2022-12-10T07:55:56;25.77;;;9.25;;
76415;SDS011;65248;55.686;37.678;2022-12-10T07:58:22;37.45;;;12.15;;
76415;SDS011;65248;55.686;37.678;2022-12-10T08:00:48;38.13;;;11.50;;
76415;SDS011;65248;55.686;37.678;2022-12-10T08:03:13;29.73;;;11.68;;
76415;SDS011;65248;55.686;37.678;2022-12-10T08:05:39;29.17;;;12.23;;
76415;SDS011;65248;55.686;37.678;2022-12-10T08:08:04;27.00;;;10.05;;
76415;SDS011;65248;55.686;37.678;2022-12-10T08:10:33;33.78;;;12.35;;
76415;SDS011;65248;55.686;37.678;2022-12-10T08:12:59;35.20;;;11.73;;
76415;SDS011;65248;55.686;37.678;2022-12-10T08:15:24;40.85;;;12.25;;
76415;SDS011;65248;55.686;37.678;2022-12-10T08:17:50;36.00;;;11.95;;
76415;SDS011;65248;55.686;37.678;2022-12-10T08:20:15;28.20;;;10.32;;
76415;SDS011;65248;55.686;37.678;2022-12-10T08:22:41;35.33;;;12.25;;
76415;SDS011;65248;55.686;37.678;2022-12-10T08:25:06;30.92;;;11.60;;
76415;SDS011;65248;55.686;37.678;2022-12-10T08:27:32;37.78;;;12.70;;
76415;SDS011;65248;55.686;37.678;2022-12-10T08:29:57;35.53;;;12.60;;
76415;SDS011;65248;55.686;37.678;2022-12-10T08:32:23;35.13;;;11.05;;
76415;SDS011;65248;55.686;37.678;2022-12-10T08:34:48;38.10;;;12.18;;
76415;SDS011;65248;55.686;37.678;2022-12-10T08:37:14;30.67;;;12.15;;
76415;SDS011;65248;55.686;37.678;2022-12-10T08:39:39;27.10;;;12.00;;
76415;SDS011;65248;55.686;37.678;2022-12-10T08:42:05;42.83;;;14.27;;
76415;SDS011;65248;55.686;37.678;2022-12-10T08:44:31;42.97;;;10.32;;
76415;SDS011;65248;55.686;37.678;2022-12-10T08:46:56;34.13;;;12.30;;
76415;SDS011;65248;55.686;37.678;2022-12-10T08:49:22;47.05;;;14.60;;
76415;SDS011;65248;55.686;37.678;2022-12-10T08:51:47;34.30;;;11.38;;
76415;SDS011;65248;55.686;37.678;2022-12-10T08:54:13;36.60;;;11.18;;
76415;SDS011;65248;55.686;37.678;2022-12-10T08:56:38;30.63;;;11.57;;
76415;SDS011;65248;55.686;37.678;2022-12-10T08:59:04;29.50;;;11.32;;
76415;SDS011;65248;55.686;37.678;2022-12-10T09:01:30;30.38;;;11.73;;
76415;SDS011;65248;55.686;37.678;2022-12-10T09:03:56;33.08;;;12.38;;
76415;SDS011;65248;55.686;37.678;2022-12-10T09:06:22;31.65;;;12.80;;
76415;SDS011;65248;55.686;37.678;2022-12-10T09:08:49;31.10;;;11.48;;
76415;SDS011;65248;55.686;37.678;2022-12-10T09:11:16;40.35;;;12.02;;
76415;SDS011;65248;55.686;37.678;2022-12-10T09:13:44;24.73;;;9.85;;
76415;SDS011;65248;55.686;37.678;2022-12-10T09:16:10;25.20;;;10.65;;
76415;SDS011;65248;55.686;37.678;2022-12-10T09:18:36;26.67;;;11.80;;
76415;SDS011;65248;55.686;37.678;2022-12-10T09:21:06;37.78;;;11.95;;
76415;SDS011;65248;55.686;37.678;2022-12-10T09:23:32;29.05;;;11.05;;
76415;SDS011;65248;55.686;37.678;2022-12-10T09:25:58;31.73;;;12.98;;
76415;SDS011;65248;55.686;37.678;2022-12-10T09:28:24;36.30;;;11.85;;
76415;SDS011;65248;55.686;37.678;2022-12-10T09:30:56;32.28;;;11.57;;
76415;SDS011;65248;55.686;37.678;2022-12-10T09:33:23;27.85;;;10.90;;
76415;SDS011;65248;55.686;37.678;2022-12-10T09:35:51;35.20;;;11.55;;
76415;SDS011;65248;55.686;37.678;2022-12-10T09:38:16;35.72;;;11.60;;
76415;SDS011;65248;55.686;37.678;2022-12-10T09:40:45;35.72;;;12.68;;
76415;SDS011;65248;55.686;37.678;2022-12-10T09:43:22;33.88;;;12.20;;
76415;SDS011;65248;55.686;37.678;2022-12-10T09:48:31;46.67;;;13.60;;
76415;SDS011;65248;55.686;37.678;2022-12-10T09:51:05;42.97;;;12.63;;
76415;SDS011;65248;55.686;37.678;2022-12-10T09:53:37;42.03;;;13.85;;
76415;SDS011;65248;55.686;37.678;2022-12-10T09:56:08;33.55;;;11.57;;
76415;SDS011;65248;55.686;37.678;2022-12-10T10:01:58;36.72;;;11.75;;
76415;SDS011;65248;55.686;37.678;2022-12-10T10:04:44;37.30;;;12.50;;
76415;SDS011;65248;55.686;37.678;2022-12-10T10:07:12;39.28;;;14.90;;
76415;SDS011;65248;55.686;37.678;2022-12-10T10:09:45;53.28;;;15.20;;
76415;SDS011;65248;55.686;37.678;2022-12-10T10:12:14;38.92;;;15.10;;
76415;SDS011;65248;55.686;37.678;2022-12-10T10:14:42;40.95;;;13.00;;
76415;SDS011;65248;55.686;37.678;2022-12-10T10:17:15;41.22;;;14.68;;
76415;SDS011;65248;55.686;37.678;2022-12-10T10:19:52;42.42;;;12.80;;
76415;SDS011;65248;55.686;37.678;2022-12-10T10:22:18;39.60;;;14.35;;
76415;SDS011;65248;55.686;37.678;2022-12-10T10:24:44;35.85;;;13.75;;
76415;SDS011;65248;55.686;37.678;2022-12-10T10:27:21;46.88;;;13.70;;
76415;SDS011;65248;55.686;37.678;2022-12-10T10:29:52;44.47;;;13.88;;
76415;SDS011;65248;55.686;37.678;2022-12-10T10:32:25;46.65;;;15.23;;
76415;SDS011;65248;55.686;37.678;2022-12-10T10:35:02;36.30;;;13.60;;
76415;SDS011;65248;55.686;37.678;2022-12-10T10:37:39;42.28;;;13.95;;
76415;SDS011;65248;55.686;37.678;2022-12-10T10:40:29;36.22;;;14.15;;
76415;SDS011;65248;55.686;37.678;2022-12-10T10:43:05;43.25;;;13.40;;
76415;SDS011;65248;55.686;37.678;2022-12-10T10:50:39;50.90;;;16.50;;
76415;SDS011;65248;55.686;37.678;2022-12-10T10:53:29;32.78;;;12.55;;
76415;SDS011;65248;55.686;37.678;2022-12-10T10:56:05;38.67;;;12.25;;
76415;SDS011;65248;55.686;37.678;2022-12-10T10:58:34;40.13;;;11.63;;
76415;SDS011;65248;55.686;37.678;2022-12-10T11:01:07;34.83;;;12.05;;
76415;SDS011;65248;55.686;37.678;2022-12-10T11:03:34;44.05;;;12.93;;
76415;SDS011;65248;55.686;37.678;2022-12-10T11:06:04;27.83;;;11.57;;
76415;SDS011;65248;55.686;37.678;2022-12-10T11:08:33;35.65;;;12.18;;
76415;SDS011;65248;55.686;37.678;2022-12-10T11:11:06;39.53;;;12.30;;
76415;SDS011;65248;55.686;37.678;2022-12-10T11:13:37;37.78;;;12.63;;
76415;SDS011;65248;55.686;37.678;2022-12-10T11:18:52;41.53;;;12.68;;
76415;SDS011;65248;55.686;37.678;2022-12-10T11:21:27;39.85;;;11.77;;
76415;SDS011;65248;55.686;37.678;2022-12-10T11:23:54;38.50;;;11.70;;
76415;SDS011;65248;55.686;37.678;2022-12-10T11:32:06;32.35;;;10.55;;
76415;SDS011;65248;55.686;37.678;2022-12-10T11:38:17;34.92;;;11.82;;
76415;SDS011;65248;55.686;37.678;2022-12-10T11:40:49;39.78;;;11.48;;
76415;SDS011;65248;55.686;37.678;2022-12-10T11:43:21;34.67;;;11.35;;
76415;SDS011;65248;55.686;37.678;2022-12-10T11:55:46;32.33;;;12.57;;
76415;SDS011;65248;55.686;37.678;2022-12-10T12:03:47;29.02;;;12.73;;
76415;SDS011;65248;55.686;37.678;2022-12-10T12:12:03;29.23;;;10.20;;
76415;SDS011;65248;55.686;37.678;2022-12-10T12:14:34;32.33;;;11.48;;
76415;SDS011;65248;55.686;37.678;2022-12-10T12:19:55;27.65;;;10.10;;
76415;SDS011;65248;55.686;37.678;2022-12-10T12:22:42;33.88;;;9.95;;
76415;SDS011;65248;55.686;37.678;2022-12-10T12:27:59;29.17;;;10.45;;
76415;SDS011;65248;55.686;37.678;2022-12-10T12:30:26;21.58;;;8.73;;
76415;SDS011;65248;55.686;37.678;2022-12-10T12:38:02;22.92;;;10.32;;
76415;SDS011;65248;55.686;37.678;2022-12-10T12:43:23;23.00;;;8.75;;
76415;SDS011;65248;55.686;37.678;2022-12-10T12:45:56;26.00;;;10.55;;
76415;SDS011;65248;55.686;37.678;2022-12-10T12:51:16;17.92;;;8.73;;
76415;SDS011;65248;55.686;37.678;2022-12-10T12:53:49;26.90;;;10.27;;
76415;SDS011;65248;55.686;37.678;2022-12-10T12:59:05;24.05;;;10.77;;
76415;SDS011;65248;55.686;37.678;2022-12-10T13:01:53;30.30;;;8.60;;
76415;SDS011;65248;55.686;37.678;2022-12-10T13:04:24;23.05;;;9.35;;
76415;SDS011;65248;55.686;37.678;2022-12-10T13:09:45;29.98;;;9.35;;
76415;SDS011;65248;55.686;37.678;2022-12-10T13:12:32;19.00;;;9.45;;
76415;SDS011;65248;55.686;37.678;2022-12-10T13:15:19;25.67;;;8.88;;
76415;SDS011;65248;55.686;37.678;2022-12-10T13:20:40;15.88;;;8.07;;
76415;SDS011;65248;55.686;37.678;2022-12-10T13:36:28;14.90;;;7.78;;
76415;SDS011;65248;55.686;37.678;2022-12-10T13:39:32;22.83;;;8.55;;
76415;SDS011;65248;55.686;37.678;2022-12-10T13:47:25;15.63;;;8.43;;
76415;SDS011;65248;55.686;37.678;2022-12-10T13:49:57;21.75;;;9.30;;
76415;SDS011;65248;55.686;37.678;2022-12-10T14:11:39;19.83;;;9.25;;
76415;SDS011;65248;55.686;37.678;2022-12-10T14:14:13;19.05;;;8.02;;
76415;SDS011;65248;55.686;37.678;2022-12-10T14:16:47;22.60;;;8.43;;
76415;SDS011;65248;55.686;37.678;2022-12-10T14:19:13;18.95;;;8.05;;
76415;SDS011;65248;55.686;37.678;2022-12-10T14:21:41;26.00;;;8.60;;
76415;SDS011;65248;55.686;37.678;2022-12-10T14:24:30;17.90;;;7.03;;
76415;SDS011;65248;55.686;37.678;2022-12-10T14:27:00;16.63;;;9.20;;
76415;SDS011;65248;55.686;37.678;2022-12-10T14:29:43;13.50;;;6.72;;
76415;SDS011;65248;55.686;37.678;2022-12-10T14:32:20;19.15;;;6.95;;
76415;SDS011;65248;55.686;37.678;2022-12-10T14:34:52;17.05;;;7.65;;
76415;SDS011;65248;55.686;37.678;2022-12-10T14:37:23;17.83;;;9.45;;
76415;SDS011;65248;55.686;37.678;2022-12-10T14:39:51;18.88;;;9.23;;
76415;SDS011;65248;55.686;37.678;2022-12-10T14:42:17;24.38;;;8.18;;
76415;SDS011;65248;55.686;37.678;2022-12-10T14:44:44;17.67;;;7.20;;
76415;SDS011;65248;55.686;37.678;2022-12-10T14:47:13;19.75;;;8.48;;
76415;SDS011;65248;55.686;37.678;2022-12-10T14:49:42;22.90;;;9.35;;
76415;SDS011;65248;55.686;37.678;2022-12-10T14:52:11;16.92;;;7.22;;
76415;SDS011;65248;55.686;37.678;2022-12-10T14:54:45;13.45;;;7.05;;
76415;SDS011;65248;55.686;37.678;2022-12-10T14:57:23;15.68;;;7.18;;
76415;SDS011;65248;55.686;37.678;2022-12-10T15:02:33;17.98;;;6.93;;
76415;SDS011;65248;55.686;37.678;2022-12-10T15:05:02;15.05;;;6.63;;
76415;SDS011;65248;55.686;37.678;2022-12-10T15:07:34;14.55;;;7.43;;
76415;SDS011;65248;55.686;37.678;2022-12-10T15:10:04;14.93;;;7.10;;
76415;SDS011;65248;55.686;37.678;2022-12-10T15:15:33;10.77;;;6.22;;
76415;SDS011;65248;55.686;37.678;2022-12-10T15:25:46;10.00;;;6.78;;
76415;SDS011;65248;55.686;37.678;2022-12-10T15:28:27;19.83;;;7.93;;
76415;SDS011;65248;55.686;37.678;2022-12-10T15:30:55;10.95;;;5.97;;
76415;SDS011;65248;55.686;37.678;2022-12-10T15:33:37;12.32;;;6.30;;
76415;SDS011;65248;55.686;37.678;2022-12-10T15:36:11;13.63;;;5.75;;
76415;SDS011;65248;55.686;37.678;2022-12-10T15:38:45;15.05;;;5.75;;
76415;SDS011;65248;55.686;37.678;2022-12-10T15:41:21;16.58;;;6.63;;
76415;SDS011;65248;55.686;37.678;2022-12-10T15:43:54;11.57;;;7.57;;
76415;SDS011;65248;55.686;37.678;2022-12-10T15:46:23;9.90;;;6.28;;
76415;SDS011;65248;55.686;37.678;2022-12-10T15:48:48;10.50;;;6.03;;
76415;SDS011;65248;55.686;37.678;2022-12-10T15:51:13;13.73;;;5.97;;
76415;SDS011;65248;55.686;37.678;2022-12-10T15:53:39;12.10;;;6.25;;
76415;SDS011;65248;55.686;37.678;2022-12-10T15:56:05;8.95;;;5.25;;
76415;SDS011;65248;55.686;37.678;2022-12-10T15:58:30;8.80;;;5.00;;
76415;SDS011;65248;55.686;37.678;2022-12-10T16:00:56;11.35;;;6.13;;
76415;SDS011;65248;55.686;37.678;2022-12-10T16:03:21;8.32;;;5.18;;
76415;SDS011;65248;55.686;37.678;2022-12-10T16:05:52;10.80;;;6.22;;
76415;SDS011;65248;55.686;37.678;2022-12-10T16:10:48;11.52;;;4.32;;
76415;SDS011;65248;55.686;37.678;2022-12-10T16:13:19;12.52;;;5.53;;
76415;SDS011;65248;55.686;37.678;2022-12-10T16:15:51;13.68;;;5.45;;
76415;SDS011;65248;55.686;37.678;2022-12-10T16:18:21;10.18;;;4.70;;
76415;SDS011;65248;55.686;37.678;2022-12-10T16:20:47;12.18;;;5.22;;
76415;SDS011;65248;55.686;37.678;2022-12-10T16:23:12;12.90;;;5.03;;
76415;SDS011;65248;55.686;37.678;2022-12-10T16:25:39;10.13;;;4.38;;
76415;SDS011;65248;55.686;37.678;2022-12-10T16:28:13;7.63;;;4.22;;
76415;SDS011;65248;55.686;37.678;2022-12-10T16:30:43;6.80;;;4.18;;
76415;SDS011;65248;55.686;37.678;2022-12-10T16:33:12;7.82;;;4.25;;
76415;SDS011;65248;55.686;37.678;2022-12-10T16:35:38;7.63;;;4.63;;
76415;SDS011;65248;55.686;37.678;2022-12-10T16:38:03;7.03;;;3.97;;
76415;SDS011;65248;55.686;37.678;2022-12-10T16:40:29;8.95;;;5.57;;
76415;SDS011;65248;55.686;37.678;2022-12-10T16:42:55;8.40;;;4.82;;
76415;SDS011;65248;55.686;37.678;2022-12-10T16:45:24;9.18;;;4.85;;
76415;SDS011;65248;55.686;37.678;2022-12-10T16:47:52;5.95;;;4.55;;
76415;SDS011;65248;55.686;37.678;2022-12-10T16:50:18;6.70;;;4.13;;
76415;SDS011;65248;55.686;37.678;2022-12-10T16:52:44;9.13;;;4.88;;
76415;SDS011;65248;55.686;37.678;2022-12-10T16:55:11;17.98;;;5.50;;
76415;SDS011;65248;55.686;37.678;2022-12-10T16:57:38;9.43;;;4.55;;